createdAt,value
2023-05-06T00:01:40.731Z,13.40
2023-05-06T00:04:12.521Z,13.40
2023-05-06T00:06:44.242Z,13.40
2023-05-06T00:09:15.991Z,13.40
2023-05-06T00:11:47.786Z,13.40
2023-05-06T00:14:19.472Z,13.40
2023-05-06T00:16:51.167Z,13.40
2023-05-06T00:19:22.936Z,13.40
2023-05-06T00:21:55.853Z,13.40
2023-05-06T00:24:27.621Z,13.40
2023-05-06T00:26:59.392Z,13.40
2023-05-06T00:29:31.109Z,13.30
2023-05-06T00:32:02.910Z,13.30
2023-05-06T00:34:34.651Z,13.20
2023-05-06T00:37:06.330Z,13.20
2023-05-06T00:39:38.044Z,13.20
2023-05-06T00:42:09.799Z,13.20
2023-05-06T00:44:41.554Z,13.10
2023-05-06T00:47:13.481Z,13.20
2023-05-06T00:49:47.756Z,13.20
2023-05-06T00:52:20.425Z,13.20
2023-05-06T00:54:52.251Z,13.20
2023-05-06T00:57:24.712Z,13.20
2023-05-06T00:59:56.519Z,13.30
2023-05-06T01:02:39.663Z,13.30
2023-05-06T01:05:20.894Z,13.30
2023-05-06T01:08:19.407Z,13.20
2023-05-06T01:11:00.218Z,13.20
2023-05-06T01:14:06.346Z,13.20
2023-05-06T01:16:40.793Z,13.20
2023-05-06T01:19:29.246Z,13.10
2023-05-06T01:22:02.375Z,13.10
2023-05-06T01:24:44.835Z,13.10
2023-05-06T01:27:16.897Z,13.10
2023-05-06T01:29:49.202Z,13.10
2023-05-06T01:32:58.691Z,13.00
2023-05-06T01:35:47.655Z,13.00
2023-05-06T01:38:43.280Z,13.00
2023-05-06T01:41:18.985Z,13.10
2023-05-06T01:43:53.397Z,13.10
2023-05-06T01:46:25.705Z,13.10
2023-05-06T01:49:01.194Z,13.10
2023-05-06T01:51:34.199Z,13.10
2023-05-06T01:54:06.328Z,13.10
2023-05-06T01:56:38.014Z,13.10
2023-05-06T01:59:09.782Z,13.10
2023-05-06T02:01:41.463Z,13.10
2023-05-06T02:04:13.213Z,13.10
2023-05-06T02:06:44.943Z,13.10
2023-05-06T02:09:16.663Z,13.10
2023-05-06T02:11:48.333Z,13.10
2023-05-06T02:14:20.093Z,13.10
2023-05-06T02:16:51.772Z,13.10
2023-05-06T02:19:23.460Z,13.10
2023-05-06T02:21:55.147Z,13.10
2023-05-06T02:24:26.900Z,13.10
2023-05-06T02:26:58.689Z,13.10
2023-05-06T02:29:30.384Z,13.10
2023-05-06T02:32:02.090Z,13.10
2023-05-06T02:34:33.841Z,13.10
2023-05-06T02:37:05.595Z,13.10
2023-05-06T02:39:37.309Z,13.00
2023-05-06T02:42:08.983Z,13.10
2023-05-06T02:44:40.856Z,13.00
2023-05-06T02:47:12.581Z,13.00
2023-05-06T02:49:44.396Z,13.00
2023-05-06T02:52:16.213Z,12.90
2023-05-06T02:54:48.035Z,12.90
2023-05-06T02:57:19.754Z,12.90
2023-05-06T02:59:51.398Z,12.90
2023-05-06T03:02:23.118Z,12.90
2023-05-06T03:04:54.905Z,12.90
2023-05-06T03:07:26.623Z,12.90
2023-05-06T03:09:58.376Z,12.80
2023-05-06T03:12:30.139Z,12.80
2023-05-06T03:15:01.844Z,12.80
2023-05-06T03:17:33.597Z,12.80
2023-05-06T03:20:08.230Z,12.80
2023-05-06T03:22:41.168Z,12.80
2023-05-06T03:25:12.937Z,12.70
2023-05-06T03:27:44.677Z,12.70
2023-05-06T03:30:16.507Z,12.70
2023-05-06T03:32:48.916Z,12.70
2023-05-06T03:35:20.702Z,12.60
2023-05-06T03:37:52.569Z,12.60
2023-05-06T03:40:24.318Z,12.50
2023-05-06T03:42:56.033Z,12.50
2023-05-06T03:45:27.751Z,12.40
2023-05-06T03:47:59.443Z,12.40
2023-05-06T03:50:31.562Z,12.40
2023-05-06T03:53:03.329Z,12.40
2023-05-06T03:55:35.071Z,12.40
2023-05-06T03:58:07.259Z,12.30
2023-05-06T04:00:39.007Z,12.30
2023-05-06T04:03:11.073Z,12.40
2023-05-06T04:05:42.806Z,12.40
2023-05-06T04:08:14.473Z,12.40
2023-05-06T04:10:46.212Z,12.30
2023-05-06T04:13:18.322Z,12.30
2023-05-06T04:15:50.415Z,12.30
2023-05-06T04:18:22.340Z,12.20
2023-05-06T04:20:54.083Z,12.20
2023-05-06T04:23:25.858Z,12.10
2023-05-06T04:25:57.984Z,12.00
2023-05-06T04:28:29.912Z,12.00
2023-05-06T04:31:02.319Z,11.90
2023-05-06T04:33:34.392Z,11.90
2023-05-06T04:36:06.612Z,11.80
2023-05-06T04:38:39.112Z,11.80
2023-05-06T04:41:11.989Z,11.70
2023-05-06T04:43:43.722Z,11.70
2023-05-06T04:46:15.536Z,11.80
2023-05-06T04:48:47.397Z,11.80
2023-05-06T04:51:19.150Z,11.90
2023-05-06T04:53:52.556Z,11.90
2023-05-06T04:56:24.280Z,11.90
2023-05-06T05:04:22.669Z,11.90
2023-05-06T05:06:54.314Z,11.90
2023-05-06T05:09:26.312Z,11.80
2023-05-06T05:11:58.008Z,11.90
2023-05-06T05:14:29.771Z,11.90
2023-05-06T05:17:01.508Z,12.00
2023-05-06T05:19:33.212Z,12.00
2023-05-06T05:22:04.945Z,12.10
2023-05-06T05:24:36.634Z,12.20
2023-05-06T05:27:08.319Z,12.20
2023-05-06T05:29:40.032Z,12.20
2023-05-06T05:32:11.705Z,12.30
2023-05-06T05:34:43.402Z,12.30
2023-05-06T05:37:15.138Z,12.40
2023-05-06T05:39:46.876Z,12.40
2023-05-06T05:42:18.611Z,12.50
2023-05-06T05:44:50.643Z,12.50
2023-05-06T05:47:22.531Z,12.50
2023-05-06T05:49:54.279Z,12.60
2023-05-06T05:52:25.984Z,12.60
2023-05-06T05:54:57.651Z,12.70
2023-05-06T05:57:29.326Z,12.80
2023-05-06T06:00:01.001Z,12.90
2023-05-06T06:02:34.582Z,13.10
2023-05-06T06:05:06.959Z,13.20
2023-05-06T06:07:38.697Z,13.40
2023-05-06T06:10:10.584Z,13.40
2023-05-06T06:12:44.150Z,13.50
2023-05-06T06:15:16.251Z,13.60
2023-05-06T06:17:48.146Z,13.70
2023-05-06T06:20:19.871Z,13.80
2023-05-06T06:22:51.591Z,14.00
2023-05-06T06:25:23.412Z,14.10
2023-05-06T06:27:57.230Z,14.20
2023-05-06T06:30:28.952Z,14.30
2023-05-06T06:33:01.454Z,14.20
2023-05-06T06:35:33.324Z,14.00
2023-05-06T06:38:05.037Z,14.10
2023-05-06T06:40:36.712Z,14.10
2023-05-06T06:43:08.413Z,14.10
2023-05-06T06:45:40.197Z,14.10
2023-05-06T06:48:12.099Z,14.20
2023-05-06T06:50:43.948Z,14.20
2023-05-06T06:53:15.744Z,14.20
2023-05-06T06:55:47.454Z,14.20
2023-05-06T06:58:19.123Z,14.20
2023-05-06T07:00:51.031Z,14.10
2023-05-06T07:03:23.946Z,14.20
2023-05-06T07:05:55.618Z,14.30
2023-05-06T07:08:27.443Z,14.40
2023-05-06T07:10:59.224Z,14.40
2023-05-06T07:13:30.970Z,14.60
2023-05-06T07:16:03.890Z,14.60
2023-05-06T07:18:35.676Z,14.60
2023-05-06T07:21:07.455Z,14.70
2023-05-06T07:23:39.194Z,14.90
2023-05-06T07:26:11.160Z,15.00
2023-05-06T07:28:42.940Z,15.20
2023-05-06T07:31:16.326Z,15.20
2023-05-06T07:33:48.418Z,15.20
2023-05-06T07:36:20.261Z,15.30
2023-05-06T07:38:51.960Z,15.50
2023-05-06T07:41:23.666Z,15.60
2023-05-06T07:43:56.398Z,15.80
2023-05-06T07:46:28.603Z,15.90
2023-05-06T07:49:00.488Z,16.00
2023-05-06T07:51:32.951Z,16.20
2023-05-06T07:54:04.882Z,16.20
2023-05-06T07:56:37.607Z,16.30
2023-05-06T07:59:09.422Z,16.40
2023-05-06T08:01:41.124Z,16.40
2023-05-06T08:04:13.177Z,16.30
2023-05-06T08:06:45.092Z,16.30
2023-05-06T08:09:22.560Z,16.50
2023-05-06T08:11:55.039Z,16.70
2023-05-06T08:14:26.947Z,16.70
2023-05-06T08:16:58.688Z,16.60
2023-05-06T08:19:30.834Z,16.60
2023-05-06T08:22:02.647Z,16.80
2023-05-06T08:24:34.394Z,17.00
2023-05-06T08:27:06.170Z,17.10
2023-05-06T08:29:37.872Z,17.20
2023-05-06T08:32:09.830Z,17.50
2023-05-06T08:34:41.766Z,17.40
2023-05-06T08:37:13.569Z,17.10
2023-05-06T08:39:45.733Z,17.10
2023-05-06T08:42:17.698Z,17.20
2023-05-06T08:44:52.273Z,17.40
2023-05-06T08:47:24.085Z,17.50
2023-05-06T08:49:56.040Z,17.70
2023-05-06T08:52:28.624Z,17.90
2023-05-06T08:55:04.897Z,18.10
2023-05-06T08:57:37.735Z,18.20
2023-05-06T09:00:11.124Z,18.20
2023-05-06T09:02:43.441Z,18.60
2023-05-06T09:05:16.367Z,19.40
2023-05-06T09:07:48.061Z,20.10
2023-05-06T09:10:19.960Z,21.00
2023-05-06T09:12:54.777Z,21.60
2023-05-06T09:15:27.166Z,22.30
2023-05-06T09:18:01.170Z,22.40
2023-05-06T09:20:40.170Z,23.20
2023-05-06T09:23:13.207Z,23.50
2023-05-06T09:25:46.578Z,23.00
2023-05-06T09:28:18.298Z,22.80
2023-05-06T09:30:51.988Z,22.30
2023-05-06T09:33:23.725Z,22.40
2023-05-06T09:35:55.631Z,23.20
2023-05-06T09:38:27.446Z,23.50
2023-05-06T09:40:59.240Z,23.80
2023-05-06T09:43:31.253Z,23.60
2023-05-06T09:46:06.081Z,23.20
2023-05-06T09:48:38.186Z,22.60
2023-05-06T09:51:10.955Z,22.40
2023-05-06T09:53:44.738Z,22.00
2023-05-06T09:56:17.102Z,22.20
2023-05-06T09:58:50.034Z,21.70
2023-05-06T10:01:35.345Z,21.40
2023-05-06T10:04:10.216Z,20.80
2023-05-06T10:06:42.909Z,20.30
2023-05-06T10:09:16.204Z,20.60
2023-05-06T10:11:49.112Z,21.10
2023-05-06T10:14:20.948Z,21.90
2023-05-06T10:16:53.777Z,21.70
2023-05-06T10:19:26.687Z,22.30
2023-05-06T10:22:16.432Z,23.80
2023-05-06T10:25:05.880Z,25.00
2023-05-06T10:27:41.944Z,25.70
2023-05-06T10:30:17.128Z,26.10
2023-05-06T10:32:52.222Z,26.30
2023-05-06T10:35:42.572Z,26.30
2023-05-06T10:38:34.457Z,25.20
2023-05-06T10:41:08.954Z,24.10
2023-05-06T10:43:45.224Z,23.10
2023-05-06T10:46:18.171Z,22.40
2023-05-06T10:49:11.375Z,21.70
2023-05-06T10:51:43.746Z,21.10
2023-05-06T10:54:18.690Z,20.60
2023-05-06T10:56:50.767Z,20.20
2023-05-06T10:59:24.508Z,19.90
2023-05-06T11:01:57.504Z,19.80
2023-05-06T11:04:32.011Z,19.80
2023-05-06T11:07:12.863Z,19.70
2023-05-06T11:09:59.368Z,19.60
2023-05-06T11:12:51.591Z,19.70
2023-05-06T11:15:50.560Z,19.60
2023-05-06T11:18:28.251Z,19.70
2023-05-06T11:21:03.444Z,19.80
2023-05-06T11:23:52.052Z,20.00
2023-05-06T11:26:24.764Z,20.20
2023-05-06T11:29:02.172Z,19.80
2023-05-06T11:31:41.160Z,19.80
2023-05-06T11:34:20.288Z,20.00
2023-05-06T11:36:57.595Z,19.90
2023-05-06T11:39:31.212Z,20.10
2023-05-06T11:42:08.706Z,20.60
2023-05-06T11:44:40.591Z,21.00
2023-05-06T11:47:12.278Z,21.10
2023-05-06T11:49:44.210Z,21.30
2023-05-06T11:52:19.836Z,21.30
2023-05-06T11:54:53.634Z,21.10
2023-05-06T11:57:25.353Z,21.10
2023-05-06T11:59:57.116Z,21.10
2023-05-06T12:02:28.976Z,21.30
2023-05-06T12:05:03.065Z,21.20
2023-05-06T12:07:35.010Z,21.40
2023-05-06T12:10:08.589Z,21.50
2023-05-06T12:12:40.515Z,21.70
2023-05-06T12:15:12.577Z,21.60
2023-05-06T12:17:44.479Z,21.80
2023-05-06T12:20:16.270Z,21.80
2023-05-06T12:23:14.480Z,22.00
2023-05-06T12:25:46.211Z,21.90
2023-05-06T12:28:19.383Z,21.70
2023-05-06T12:30:51.104Z,21.40
2023-05-06T12:33:23.545Z,21.20
2023-05-06T12:36:06.901Z,21.10
2023-05-06T12:38:38.636Z,20.80
2023-05-06T12:41:11.015Z,20.70
2023-05-06T12:43:42.748Z,20.50
2023-05-06T12:46:16.886Z,20.50
2023-05-06T12:49:02.197Z,20.60
2023-05-06T12:51:33.902Z,20.40
2023-05-06T12:54:31.753Z,20.20
2023-05-06T12:57:04.397Z,20.00
2023-05-06T12:59:36.782Z,20.00
2023-05-06T13:02:08.618Z,20.00
2023-05-06T13:04:40.895Z,20.00
2023-05-06T13:07:12.746Z,20.10
2023-05-06T13:09:44.837Z,20.20
2023-05-06T13:12:16.818Z,20.30
2023-05-06T13:14:48.606Z,20.30
2023-05-06T13:17:20.525Z,20.20
2023-05-06T13:19:58.696Z,20.10
2023-05-06T13:22:32.215Z,20.20
2023-05-06T13:25:07.715Z,20.30
2023-05-06T13:27:39.435Z,20.30
2023-05-06T13:30:11.743Z,20.40
2023-05-06T13:32:43.684Z,20.60
2023-05-06T13:35:15.752Z,20.90
2023-05-06T13:37:47.514Z,20.90
2023-05-06T13:40:19.479Z,20.80
2023-05-06T13:42:51.168Z,20.80
2023-05-06T13:45:22.897Z,20.70
2023-05-06T13:47:54.619Z,20.60
2023-05-06T13:50:26.334Z,20.90
2023-05-06T13:52:58.016Z,21.20
2023-05-06T13:55:29.887Z,21.30
2023-05-06T13:58:01.698Z,21.20
2023-05-06T14:00:34.706Z,21.20
2023-05-06T14:03:06.587Z,21.20
2023-05-06T14:05:38.438Z,21.10
2023-05-06T14:08:10.230Z,21.00
2023-05-06T14:10:42.003Z,21.00
2023-05-06T14:13:13.742Z,20.90
2023-05-06T14:15:45.538Z,20.80
2023-05-06T14:18:17.382Z,21.00
2023-05-06T14:20:49.122Z,21.10
2023-05-06T14:23:21.106Z,21.00
2023-05-06T14:25:52.839Z,21.00
2023-05-06T14:28:24.567Z,21.10
2023-05-06T14:30:57.995Z,21.00
2023-05-06T14:33:29.742Z,20.80
2023-05-06T14:36:03.378Z,20.90
2023-05-06T14:38:35.150Z,21.10
2023-05-06T14:41:06.833Z,20.80
2023-05-06T14:43:38.637Z,20.70
2023-05-06T14:46:11.289Z,20.40
2023-05-06T14:48:43.718Z,20.20
2023-05-06T14:51:15.511Z,20.30
2023-05-06T14:53:47.350Z,20.10
2023-05-06T14:56:19.108Z,20.00
2023-05-06T14:58:50.891Z,20.00
2023-05-06T15:01:22.642Z,20.10
2023-05-06T15:03:54.355Z,20.10
2023-05-06T15:06:26.070Z,20.00
2023-05-06T15:08:57.775Z,20.00
2023-05-06T15:11:29.693Z,19.80
2023-05-06T15:14:01.352Z,19.70
2023-05-06T15:16:33.178Z,19.50
2023-05-06T15:19:04.875Z,19.40
2023-05-06T15:21:36.625Z,19.40
2023-05-06T15:24:08.797Z,19.30
2023-05-06T15:26:40.537Z,19.50
2023-05-06T15:29:12.537Z,19.70
2023-05-06T15:31:45.069Z,19.60
2023-05-06T15:34:16.952Z,19.60
2023-05-06T15:36:51.936Z,19.50
2023-05-06T15:39:24.266Z,19.50
2023-05-06T15:41:59.227Z,19.50
2023-05-06T15:44:32.583Z,19.50
2023-05-06T15:47:04.563Z,19.50
2023-05-06T15:49:51.448Z,19.50
2023-05-06T15:52:26.443Z,19.50
2023-05-06T15:55:00.023Z,19.40
2023-05-06T15:57:31.953Z,19.50
2023-05-06T16:00:05.585Z,19.50
2023-05-06T16:02:37.510Z,19.60
2023-05-06T16:05:09.824Z,19.60
2023-05-06T16:07:41.601Z,19.60
2023-05-06T16:10:13.392Z,19.60
2023-05-06T16:12:45.233Z,19.60
2023-05-06T16:15:17.285Z,19.50
2023-05-06T16:17:49.213Z,19.60
2023-05-06T16:20:20.962Z,19.80
2023-05-06T16:22:53.015Z,19.70
2023-05-06T16:25:25.169Z,19.60
2023-05-06T16:27:57.018Z,19.60
2023-05-06T16:30:28.928Z,19.50
2023-05-06T16:33:00.756Z,19.50
2023-05-06T16:35:32.863Z,19.50
2023-05-06T16:38:04.594Z,19.40
2023-05-06T16:40:47.450Z,19.70
2023-05-06T16:43:19.321Z,19.80
2023-05-06T16:45:51.425Z,19.70
2023-05-06T16:48:23.224Z,19.60
2023-05-06T16:50:54.940Z,19.70
2023-05-06T16:53:27.812Z,19.50
2023-05-06T16:56:01.892Z,19.30
2023-05-06T16:58:33.610Z,19.10
2023-05-06T17:01:08.035Z,19.00
2023-05-06T17:03:40.404Z,19.00
2023-05-06T17:06:13.006Z,19.00
2023-05-06T17:08:44.804Z,18.90
2023-05-06T17:11:16.887Z,18.90
2023-05-06T17:13:48.671Z,18.90
2023-05-06T17:16:21.551Z,18.80
2023-05-06T17:18:53.401Z,18.70
2023-05-06T17:21:25.774Z,18.70
2023-05-06T17:23:58.740Z,18.60
2023-05-06T17:26:34.929Z,18.60
2023-05-06T17:29:08.096Z,18.60
2023-05-06T17:31:40.067Z,18.50
2023-05-06T17:34:11.789Z,18.50
2023-05-06T17:36:43.524Z,18.40
2023-05-06T17:39:15.234Z,18.40
2023-05-06T17:41:47.087Z,18.30
2023-05-06T17:44:18.977Z,18.30
2023-05-06T17:46:50.818Z,18.20
2023-05-06T17:49:23.214Z,18.20
2023-05-06T17:51:55.986Z,18.10
2023-05-06T17:54:32.177Z,18.00
2023-05-06T17:57:03.945Z,17.90
2023-05-06T17:59:37.034Z,17.80
2023-05-06T18:02:10.107Z,17.70
2023-05-06T18:04:47.250Z,17.70
2023-05-06T18:07:19.082Z,17.60
2023-05-06T18:09:52.117Z,17.50
2023-05-06T18:12:24.039Z,17.40
2023-05-06T18:14:57.878Z,17.40
2023-05-06T18:17:29.632Z,17.30
2023-05-06T18:20:01.461Z,17.20
2023-05-06T18:22:33.395Z,17.10
2023-05-06T18:25:05.885Z,17.00
2023-05-06T18:27:37.637Z,16.90
2023-05-06T18:30:09.658Z,16.80
2023-05-06T18:32:41.405Z,16.70
2023-05-06T18:35:13.340Z,16.60
2023-05-06T18:37:45.245Z,16.50
2023-05-06T18:40:17.782Z,16.40
2023-05-06T18:42:49.483Z,16.30
2023-05-06T18:45:21.507Z,16.20
2023-05-06T18:47:53.350Z,16.10
2023-05-06T18:50:25.176Z,16.00
2023-05-06T18:52:56.925Z,15.90
2023-05-06T18:55:29.416Z,15.80
2023-05-06T18:58:05.533Z,15.70
2023-05-06T19:00:37.330Z,15.60
2023-05-06T19:03:09.428Z,15.60
2023-05-06T19:05:41.195Z,15.50
2023-05-06T19:08:13.844Z,15.40
2023-05-06T19:10:45.694Z,15.40
2023-05-06T19:13:17.631Z,15.30
2023-05-06T19:15:49.417Z,15.30
2023-05-06T19:18:21.265Z,15.30
2023-05-06T19:20:53.526Z,15.30
2023-05-06T19:23:26.853Z,15.30
2023-05-06T19:25:58.616Z,15.30
2023-05-06T19:28:30.543Z,15.20
2023-05-06T19:31:07.651Z,15.20
2023-05-06T19:33:39.899Z,15.20
2023-05-06T19:36:11.821Z,15.20
2023-05-06T19:38:43.516Z,15.10
2023-05-06T19:41:15.267Z,15.10
2023-05-06T19:43:47.002Z,15.00
2023-05-06T19:46:18.757Z,15.00
2023-05-06T19:48:50.620Z,14.90
2023-05-06T19:51:22.319Z,14.90
2023-05-06T19:53:53.982Z,14.80
2023-05-06T19:56:25.678Z,14.70
2023-05-06T19:58:57.335Z,14.70
2023-05-06T20:01:29.043Z,14.60
2023-05-06T20:04:01.018Z,14.60
2023-05-06T20:06:33.087Z,14.50
2023-05-06T20:09:04.818Z,14.50
2023-05-06T20:11:36.574Z,14.50
2023-05-06T20:14:08.255Z,14.50
2023-05-06T20:16:40.778Z,14.50
2023-05-06T20:19:12.902Z,14.40
2023-05-06T20:21:44.629Z,14.40
2023-05-06T20:24:16.342Z,14.40
2023-05-06T20:26:48.224Z,14.30
2023-05-06T20:29:19.922Z,14.30
2023-05-06T20:31:51.633Z,14.30
2023-05-06T20:34:23.445Z,14.20
2023-05-06T20:36:56.125Z,14.20
2023-05-06T20:39:27.830Z,14.20
2023-05-06T20:41:59.508Z,14.10
2023-05-06T20:44:31.298Z,14.10
2023-05-06T20:47:03.664Z,14.10
2023-05-06T20:49:35.480Z,14.10
2023-05-06T20:52:07.749Z,14.00
2023-05-06T20:54:39.453Z,14.00
2023-05-06T20:57:13.251Z,13.90
2023-05-06T20:59:45.880Z,13.90
2023-05-06T21:02:17.764Z,13.90
2023-05-06T21:04:49.519Z,13.80
2023-05-06T21:07:21.331Z,13.80
2023-05-06T21:09:52.966Z,13.80
2023-05-06T21:12:24.700Z,13.80
2023-05-06T21:14:56.443Z,13.70
2023-05-06T21:17:29.171Z,13.70
2023-05-06T21:20:01.440Z,13.70
2023-05-06T21:22:33.891Z,13.60
2023-05-06T21:25:06.256Z,13.60
2023-05-06T21:27:37.996Z,13.60
2023-05-06T21:30:10.372Z,13.60
2023-05-06T21:32:42.231Z,13.60
2023-05-06T21:35:14.939Z,13.60
2023-05-06T21:37:46.638Z,13.60
2023-05-06T21:40:18.530Z,13.50
2023-05-06T21:42:51.214Z,13.50
2023-05-06T21:45:22.958Z,13.50
2023-05-06T21:47:54.709Z,13.50
2023-05-06T21:50:26.853Z,13.50
2023-05-06T21:52:58.503Z,13.50
2023-05-06T21:55:30.257Z,13.50
2023-05-06T21:58:01.930Z,13.40
2023-05-06T22:00:33.786Z,13.40
2023-05-06T22:03:05.622Z,13.40
2023-05-06T22:05:38.681Z,13.30
2023-05-06T22:08:10.749Z,13.30
2023-05-06T22:10:42.455Z,13.30
2023-05-06T22:13:14.247Z,13.20
2023-05-06T22:15:46.241Z,13.20
2023-05-06T22:18:18.045Z,13.10
2023-05-06T22:20:50.819Z,13.10
2023-05-06T22:23:24.011Z,13.10
2023-05-06T22:25:57.065Z,13.10
2023-05-06T22:28:29.618Z,13.10
2023-05-06T22:31:01.402Z,13.10
2023-05-06T22:33:33.174Z,13.10
2023-05-06T22:36:05.292Z,13.00
2023-05-06T22:38:37.033Z,13.00
2023-05-06T22:41:08.725Z,13.00
2023-05-06T22:43:40.441Z,13.00
2023-05-06T22:46:12.217Z,12.90
2023-05-06T22:48:46.944Z,12.90
2023-05-06T22:51:19.415Z,12.90
2023-05-06T22:53:51.220Z,12.90
2023-05-06T22:56:22.941Z,12.80
2023-05-06T22:58:54.612Z,12.80
2023-05-06T23:01:31.636Z,12.80
2023-05-06T23:04:03.739Z,12.70
2023-05-06T23:06:35.690Z,12.70
2023-05-06T23:09:07.874Z,12.70
2023-05-06T23:11:40.211Z,12.70
2023-05-06T23:14:12.702Z,12.70
2023-05-06T23:16:44.617Z,12.60
2023-05-06T23:19:17.025Z,12.60
2023-05-06T23:21:48.740Z,12.60
2023-05-06T23:24:20.446Z,12.60
2023-05-06T23:26:52.270Z,12.60
2023-05-06T23:29:23.946Z,12.60
2023-05-06T23:31:55.678Z,12.60
2023-05-06T23:34:27.472Z,12.60
2023-05-06T23:36:59.178Z,12.50
2023-05-06T23:39:30.883Z,12.50
2023-05-06T23:42:03.231Z,12.50
2023-05-06T23:44:34.958Z,12.50
2023-05-06T23:47:06.620Z,12.40
2023-05-06T23:49:38.309Z,12.40
2023-05-06T23:52:10.025Z,12.40
2023-05-06T23:54:41.756Z,12.40
2023-05-06T23:57:13.464Z,12.40
2023-05-06T23:59:45.381Z,12.40
